createdAt,value
2023-02-08T00:00:10.862Z,24.98
2023-02-08T00:02:37.835Z,25.05
2023-02-08T00:05:05.511Z,24.52
2023-02-08T00:07:32.409Z,23.52
2023-02-08T00:09:59.191Z,20.95
2023-02-08T00:12:26.173Z,21.08
2023-02-08T00:14:53.034Z,21.73
2023-02-08T00:17:20.194Z,22.40
2023-02-08T00:19:47.006Z,21.58
2023-02-08T00:22:14.010Z,21.77
2023-02-08T00:24:40.894Z,21.30
2023-02-08T00:27:09.361Z,20.73
2023-02-08T00:29:37.266Z,21.90
2023-02-08T00:32:05.079Z,22.65
2023-02-08T00:34:31.926Z,21.27
2023-02-08T00:36:59.210Z,22.30
2023-02-08T00:39:25.958Z,24.27
2023-02-08T00:41:52.976Z,23.48
2023-02-08T00:44:19.906Z,21.88
2023-02-08T00:46:46.745Z,21.40
2023-02-08T00:49:13.582Z,21.50
2023-02-08T00:51:40.501Z,21.38
2023-02-08T00:54:07.387Z,21.50
2023-02-08T00:56:34.446Z,21.13
2023-02-08T00:59:01.220Z,20.48
2023-02-08T01:01:28.077Z,20.77
2023-02-08T01:03:54.872Z,21.45
2023-02-08T01:06:21.929Z,22.50
2023-02-08T01:08:48.837Z,20.92
2023-02-08T01:11:22.603Z,21.88
2023-02-08T01:13:50.098Z,22.08
2023-02-08T01:16:19.733Z,21.70
2023-02-08T01:18:48.693Z,22.65
2023-02-08T01:21:21.547Z,20.35
2023-02-08T01:23:49.171Z,21.10
2023-02-08T01:26:18.006Z,20.50
2023-02-08T01:28:46.348Z,21.95
2023-02-08T01:31:17.840Z,21.88
2023-02-08T01:33:45.428Z,20.55
2023-02-08T01:36:13.120Z,22.02
2023-02-08T01:38:42.792Z,21.05
2023-02-08T01:41:15.348Z,21.70
2023-02-08T01:44:06.989Z,19.40
2023-02-08T01:46:36.772Z,19.30
2023-02-08T01:49:21.537Z,20.02
2023-02-08T01:51:54.076Z,20.67
2023-02-08T01:54:24.170Z,19.48
2023-02-08T01:56:52.464Z,20.02
2023-02-08T01:59:36.475Z,20.08
2023-02-08T02:02:05.544Z,17.98
2023-02-08T02:04:32.454Z,17.88
2023-02-08T02:07:01.856Z,17.35
2023-02-08T02:09:34.720Z,18.25
2023-02-08T02:12:02.408Z,17.50
2023-02-08T02:14:29.248Z,16.90
2023-02-08T02:16:56.848Z,17.50
2023-02-08T02:19:37.363Z,17.20
2023-02-08T02:22:16.398Z,17.73
2023-02-08T02:25:16.878Z,17.85
2023-02-08T02:28:20.729Z,18.07
2023-02-08T02:31:15.277Z,17.65
2023-02-08T02:34:05.170Z,18.88
2023-02-08T02:37:02.815Z,17.65
2023-02-08T02:39:47.234Z,19.17
2023-02-08T02:42:53.341Z,18.58
2023-02-08T02:45:29.525Z,18.42
2023-02-08T02:48:11.108Z,19.63
2023-02-08T02:51:17.187Z,17.80
2023-02-08T02:53:59.496Z,17.90
2023-02-08T02:56:31.761Z,16.90
2023-02-08T02:59:04.154Z,19.20
2023-02-08T03:01:32.867Z,17.33
2023-02-08T03:03:59.844Z,19.10
2023-02-08T03:06:49.361Z,16.98
2023-02-08T03:09:28.710Z,17.75
2023-02-08T03:12:21.881Z,15.30
2023-02-08T03:14:50.354Z,16.05
2023-02-08T03:17:46.015Z,14.63
2023-02-08T03:20:21.494Z,13.38
2023-02-08T03:23:10.161Z,12.75
2023-02-08T03:25:52.113Z,13.05
2023-02-08T03:28:30.533Z,12.57
2023-02-08T03:31:12.429Z,12.52
2023-02-08T03:34:14.238Z,12.13
2023-02-08T03:36:50.431Z,12.77
2023-02-08T03:39:24.766Z,13.07
2023-02-08T03:41:55.779Z,12.68
2023-02-08T03:44:31.112Z,12.15
2023-02-08T03:47:05.417Z,12.27
2023-02-08T03:49:35.887Z,12.65
2023-02-08T03:52:06.699Z,9.75
2023-02-08T03:54:38.671Z,11.27
2023-02-08T03:57:26.523Z,11.80
2023-02-08T04:00:01.552Z,12.60
2023-02-08T04:02:48.997Z,11.93
2023-02-08T04:05:16.599Z,12.60
2023-02-08T04:07:43.432Z,12.05
2023-02-08T04:10:10.518Z,12.30
2023-02-08T04:12:37.330Z,11.52
2023-02-08T04:15:04.548Z,11.20
2023-02-08T04:17:32.354Z,11.50
2023-02-08T04:20:00.496Z,11.27
2023-02-08T04:22:27.529Z,12.15
2023-02-08T04:24:54.473Z,10.77
2023-02-08T04:27:21.336Z,12.05
2023-02-08T04:29:48.520Z,12.43
2023-02-08T04:32:15.349Z,11.48
2023-02-08T04:34:42.252Z,12.63
2023-02-08T04:37:09.602Z,12.68
2023-02-08T04:39:36.829Z,12.90
2023-02-08T04:42:03.929Z,12.27
2023-02-08T04:44:32.927Z,13.23
2023-02-08T04:47:00.532Z,14.98
2023-02-08T04:49:27.782Z,14.75
2023-02-08T04:51:56.931Z,13.63
2023-02-08T04:54:24.204Z,13.98
2023-02-08T04:56:51.336Z,14.23
2023-02-08T04:59:19.110Z,14.65
2023-02-08T05:01:45.963Z,14.65
2023-02-08T05:04:12.867Z,16.08
2023-02-08T05:06:39.925Z,14.65
2023-02-08T05:09:09.353Z,14.38
2023-02-08T05:11:36.968Z,14.02
2023-02-08T05:14:04.507Z,14.05
2023-02-08T05:16:31.980Z,14.82
2023-02-08T05:18:59.052Z,14.25
2023-02-08T05:21:25.883Z,13.30
2023-02-08T05:23:52.844Z,18.13
2023-02-08T05:26:20.555Z,16.45
2023-02-08T05:28:47.934Z,13.45
2023-02-08T05:31:21.827Z,13.05
2023-02-08T05:33:50.049Z,12.50
2023-02-08T05:36:17.628Z,15.57
2023-02-08T05:38:44.832Z,16.35
2023-02-08T05:41:12.572Z,13.63
2023-02-08T05:43:39.494Z,13.43
2023-02-08T05:46:06.358Z,13.77
2023-02-08T05:48:34.378Z,16.88
2023-02-08T05:51:01.358Z,15.63
2023-02-08T05:53:28.326Z,15.60
2023-02-08T05:55:58.108Z,13.43
2023-02-08T05:58:25.995Z,14.60
2023-02-08T06:00:53.602Z,16.85
2023-02-08T06:03:20.677Z,27.42
2023-02-08T06:05:48.127Z,20.13
2023-02-08T06:08:15.850Z,18.02
2023-02-08T06:10:43.377Z,13.38
2023-02-08T06:13:10.129Z,12.70
2023-02-08T06:15:37.845Z,13.10
2023-02-08T06:18:04.805Z,12.52
2023-02-08T06:20:31.706Z,13.43
2023-02-08T06:22:58.600Z,13.05
2023-02-08T06:25:25.496Z,13.18
2023-02-08T06:27:52.304Z,12.70
2023-02-08T06:30:19.482Z,11.95
2023-02-08T06:32:46.411Z,12.25
2023-02-08T06:35:13.801Z,12.40
2023-02-08T06:37:40.647Z,11.18
2023-02-08T06:40:09.066Z,13.23
2023-02-08T06:42:36.188Z,12.23
2023-02-08T06:45:03.181Z,12.32
2023-02-08T06:47:30.638Z,34.35
2023-02-08T06:49:57.529Z,17.60
2023-02-08T06:52:24.657Z,14.85
2023-02-08T06:54:51.434Z,14.75
2023-02-08T06:57:18.248Z,12.85
2023-02-08T06:59:46.218Z,11.25
2023-02-08T07:02:15.920Z,12.70
2023-02-08T07:04:43.919Z,12.07
2023-02-08T07:07:12.654Z,12.15
2023-02-08T07:09:39.974Z,17.23
2023-02-08T07:12:07.008Z,19.13
2023-02-08T07:14:40.516Z,15.63
2023-02-08T07:17:08.143Z,14.32
2023-02-08T07:19:34.979Z,13.07
2023-02-08T07:22:08.350Z,13.57
2023-02-08T07:24:40.462Z,14.10
2023-02-08T07:27:09.609Z,15.10
2023-02-08T07:29:36.776Z,12.95
2023-02-08T07:32:04.990Z,13.60
2023-02-08T07:34:35.136Z,14.45
2023-02-08T07:37:02.543Z,14.30
2023-02-08T07:39:31.378Z,15.77
2023-02-08T07:41:59.000Z,16.13
2023-02-08T07:44:29.294Z,14.60
2023-02-08T07:46:56.300Z,16.35
2023-02-08T07:49:23.249Z,15.30
2023-02-08T07:51:50.602Z,15.18
2023-02-08T07:54:17.458Z,14.15
2023-02-08T07:56:44.801Z,13.82
2023-02-08T07:59:11.735Z,14.55
2023-02-08T08:01:39.135Z,16.40
2023-02-08T08:04:06.416Z,13.50
2023-02-08T08:06:33.745Z,20.30
2023-02-08T08:09:01.521Z,14.52
2023-02-08T08:11:28.448Z,30.38
2023-02-08T08:13:55.349Z,20.30
2023-02-08T08:16:22.846Z,15.48
2023-02-08T08:18:50.962Z,13.35
2023-02-08T08:21:17.908Z,16.52
2023-02-08T08:23:45.045Z,13.18
2023-02-08T08:26:18.134Z,10.93
2023-02-08T08:28:46.877Z,12.10
2023-02-08T08:31:17.743Z,12.68
2023-02-08T08:33:45.268Z,13.98
2023-02-08T08:36:12.331Z,13.07
2023-02-08T08:38:41.194Z,13.23
2023-02-08T08:41:10.163Z,12.10
2023-02-08T08:43:37.174Z,12.70
2023-02-08T08:46:06.168Z,13.68
2023-02-08T08:48:34.952Z,15.23
2023-02-08T08:51:02.839Z,14.13
2023-02-08T08:53:30.322Z,12.98
2023-02-08T08:55:57.372Z,14.85
2023-02-08T08:58:24.290Z,13.85
2023-02-08T09:00:52.451Z,13.95
2023-02-08T09:03:19.287Z,13.38
2023-02-08T09:05:46.912Z,11.68
2023-02-08T09:08:14.250Z,12.82
2023-02-08T09:10:41.674Z,14.00
2023-02-08T09:13:09.152Z,10.73
2023-02-08T09:15:40.012Z,10.02
2023-02-08T09:20:34.137Z,10.20
2023-02-08T09:23:01.690Z,10.82
2023-02-08T09:25:28.595Z,11.25
2023-02-08T09:27:55.422Z,11.15
2023-02-08T09:30:22.613Z,11.40
2023-02-08T09:32:49.660Z,10.35
2023-02-08T09:35:16.685Z,9.57
2023-02-08T09:37:43.935Z,10.10
2023-02-08T09:40:23.451Z,12.50
2023-02-08T09:43:09.193Z,11.20
2023-02-08T09:45:59.353Z,12.50
2023-02-08T09:48:34.992Z,8.57
2023-02-08T09:51:27.746Z,9.07
2023-02-08T09:54:03.131Z,9.85
2023-02-08T09:56:37.155Z,10.75
2023-02-08T09:59:04.306Z,9.50
2023-02-08T10:01:36.609Z,18.55
2023-02-08T10:04:36.701Z,10.57
2023-02-08T10:07:03.789Z,13.50
2023-02-08T10:09:30.654Z,11.98
2023-02-08T10:12:28.528Z,9.80
2023-02-08T10:15:23.088Z,9.48
2023-02-08T10:18:19.210Z,11.63
2023-02-08T10:21:23.133Z,10.57
2023-02-08T10:24:25.337Z,10.50
2023-02-08T10:27:17.042Z,21.83
2023-02-08T10:30:31.700Z,13.18
2023-02-08T10:33:02.632Z,10.57
2023-02-08T10:35:56.307Z,8.55
2023-02-08T10:38:44.225Z,15.15
2023-02-08T10:41:33.803Z,11.30
2023-02-08T10:44:13.459Z,10.95
2023-02-08T10:47:11.616Z,8.93
2023-02-08T10:49:59.896Z,14.60
2023-02-08T10:52:27.583Z,13.40
2023-02-08T10:54:58.269Z,13.18
2023-02-08T10:57:32.161Z,12.52
2023-02-08T11:00:27.057Z,16.88
2023-02-08T11:03:00.828Z,12.27
2023-02-08T11:05:37.615Z,10.48
2023-02-08T11:08:15.641Z,9.80
2023-02-08T11:11:00.310Z,10.40
2023-02-08T11:13:36.100Z,11.85
2023-02-08T11:16:06.512Z,11.25
2023-02-08T11:18:57.217Z,14.63
2023-02-08T11:21:33.769Z,11.75
2023-02-08T11:24:07.729Z,15.05
2023-02-08T11:26:37.472Z,12.57
2023-02-08T11:29:26.542Z,13.45
2023-02-08T11:31:58.193Z,14.60
2023-02-08T11:34:28.234Z,10.15
2023-02-08T11:36:57.458Z,11.68
2023-02-08T11:39:55.638Z,12.77
2023-02-08T11:42:27.460Z,12.35
2023-02-08T11:44:56.045Z,12.43
2023-02-08T11:47:35.283Z,18.58
2023-02-08T11:50:07.428Z,11.38
2023-02-08T11:52:39.604Z,13.73
2023-02-08T11:55:18.704Z,11.90
2023-02-08T11:57:58.039Z,11.40
2023-02-08T12:00:28.821Z,14.02
2023-02-08T12:03:01.856Z,12.13
2023-02-08T12:05:43.142Z,14.00
2023-02-08T12:08:38.164Z,13.35
2023-02-08T12:11:15.013Z,13.88
2023-02-08T12:13:51.157Z,14.20
2023-02-08T12:16:20.963Z,13.65
2023-02-08T12:19:19.361Z,17.10
2023-02-08T12:21:50.167Z,16.25
2023-02-08T12:24:23.140Z,22.60
2023-02-08T12:27:20.084Z,14.63
2023-02-08T12:30:01.632Z,14.55
2023-02-08T12:32:49.702Z,14.88
2023-02-08T12:35:41.710Z,16.08
2023-02-08T12:38:46.830Z,15.60
2023-02-08T12:41:28.103Z,14.48
2023-02-08T12:44:16.463Z,16.23
2023-02-08T12:47:25.494Z,14.48
2023-02-08T12:50:20.022Z,15.40
2023-02-08T12:53:25.726Z,13.70
2023-02-08T12:55:56.464Z,16.63
2023-02-08T12:58:45.465Z,15.05
2023-02-08T13:01:22.956Z,20.77
2023-02-08T13:04:05.072Z,15.45
2023-02-08T13:06:40.327Z,14.93
2023-02-08T13:09:35.664Z,17.90
2023-02-08T13:12:12.725Z,17.70
2023-02-08T13:14:51.154Z,18.45
2023-02-08T13:17:22.864Z,17.25
2023-02-08T13:20:11.138Z,16.40
2023-02-08T13:22:41.997Z,18.70
2023-02-08T13:27:44.266Z,15.85
2023-02-08T13:30:22.143Z,15.57
2023-02-08T13:32:51.848Z,26.27
2023-02-08T13:35:24.723Z,17.17
2023-02-08T13:37:58.762Z,15.85
2023-02-08T13:40:29.900Z,16.75
2023-02-08T13:43:02.275Z,19.60
2023-02-08T13:45:43.053Z,17.88
2023-02-08T13:48:16.649Z,18.38
2023-02-08T13:50:56.346Z,21.08
2023-02-08T13:53:38.873Z,18.80
2023-02-08T13:56:09.941Z,18.70
2023-02-08T14:01:17.888Z,21.55
2023-02-08T14:04:04.960Z,23.25
2023-02-08T14:06:33.892Z,24.38
2023-02-08T14:09:29.767Z,27.25
2023-02-08T14:12:06.483Z,24.00
2023-02-08T14:14:38.708Z,19.00
2023-02-08T14:17:18.090Z,22.25
2023-02-08T14:19:55.861Z,19.05
2023-02-08T14:22:23.237Z,21.10
2023-02-08T14:25:02.029Z,18.95
2023-02-08T14:27:39.132Z,18.48
2023-02-08T14:30:21.665Z,17.77
2023-02-08T14:32:53.030Z,16.42
2023-02-08T14:35:26.376Z,18.80
2023-02-08T14:38:36.337Z,19.35
2023-02-08T14:41:04.328Z,19.40
2023-02-08T14:43:33.828Z,22.65
2023-02-08T14:46:38.012Z,21.27
2023-02-08T14:49:19.267Z,19.38
2023-02-08T14:51:54.247Z,17.98
2023-02-08T14:54:50.059Z,18.55
2023-02-08T14:57:25.717Z,18.33
2023-02-08T14:59:53.959Z,17.63
2023-02-08T15:02:26.557Z,17.95
2023-02-08T15:04:53.752Z,21.10
2023-02-08T15:07:31.270Z,26.90
2023-02-08T15:10:03.732Z,16.58
2023-02-08T15:12:40.325Z,20.63
2023-02-08T15:15:24.494Z,23.75
2023-02-08T15:17:53.674Z,19.38
2023-02-08T15:20:22.226Z,20.77
2023-02-08T15:22:49.101Z,43.10
2023-02-08T15:25:22.787Z,35.33
2023-02-08T15:27:53.818Z,20.08
2023-02-08T15:32:52.178Z,24.33
2023-02-08T15:35:20.756Z,30.52
2023-02-08T15:37:47.931Z,30.67
2023-02-08T15:40:32.676Z,27.85
2023-02-08T15:43:20.850Z,29.23
2023-02-08T15:46:00.503Z,25.85
2023-02-08T15:48:29.302Z,20.63
2023-02-08T15:50:57.812Z,28.92
2023-02-08T15:53:27.471Z,18.05
2023-02-08T15:56:04.439Z,22.88
2023-02-08T15:58:36.621Z,21.58
2023-02-08T16:01:07.544Z,17.55
2023-02-08T16:03:36.843Z,23.67
2023-02-08T16:06:06.710Z,21.88
2023-02-08T16:08:42.184Z,16.30
2023-02-08T16:11:21.279Z,21.23
2023-02-08T16:13:51.777Z,20.50
2023-02-08T16:16:27.004Z,34.08
2023-02-08T16:19:21.591Z,28.38
2023-02-08T16:21:51.718Z,26.05
2023-02-08T16:24:25.647Z,28.48
2023-02-08T16:27:06.071Z,19.80
2023-02-08T16:29:39.270Z,21.20
2023-02-08T16:32:32.100Z,20.55
2023-02-08T16:35:01.490Z,16.13
2023-02-08T16:37:31.455Z,18.15
2023-02-08T16:42:40.083Z,14.23
2023-02-08T16:45:19.835Z,15.73
2023-02-08T16:47:48.339Z,16.65
2023-02-08T16:50:29.737Z,15.50
2023-02-08T16:53:01.316Z,15.60
2023-02-08T16:55:31.958Z,18.65
2023-02-08T16:57:59.639Z,18.02
2023-02-08T17:00:32.434Z,17.92
2023-02-08T17:03:00.049Z,17.33
2023-02-08T17:05:31.012Z,16.48
2023-02-08T17:07:59.740Z,16.45
2023-02-08T17:10:29.745Z,15.75
2023-02-08T17:13:13.483Z,16.00
2023-02-08T17:15:46.829Z,15.55
2023-02-08T17:18:14.398Z,16.92
2023-02-08T17:20:41.608Z,18.05
2023-02-08T17:23:09.613Z,17.17
2023-02-08T17:25:36.983Z,16.38
2023-02-08T17:28:17.246Z,17.17
2023-02-08T17:30:45.299Z,16.52
2023-02-08T17:33:18.563Z,15.65
2023-02-08T17:35:47.912Z,16.33
2023-02-08T17:38:15.583Z,16.00
2023-02-08T17:40:43.890Z,17.85
2023-02-08T17:43:12.376Z,16.98
2023-02-08T17:45:41.853Z,14.13
2023-02-08T17:48:09.309Z,15.45
2023-02-08T17:50:36.681Z,16.98
2023-02-08T17:53:04.160Z,15.23
2023-02-08T17:55:31.223Z,17.42
2023-02-08T17:58:03.592Z,13.85
2023-02-08T18:00:30.570Z,15.10
2023-02-08T18:03:00.519Z,16.65
2023-02-08T18:05:28.892Z,16.90
2023-02-08T18:07:56.795Z,15.70
2023-02-08T18:10:25.549Z,18.98
2023-02-08T18:12:52.425Z,19.80
2023-02-08T18:15:22.344Z,21.92
2023-02-08T18:17:53.803Z,20.70
2023-02-08T18:20:20.806Z,28.85
2023-02-08T18:22:47.743Z,22.42
2023-02-08T18:25:16.210Z,24.70
2023-02-08T18:27:43.495Z,29.73
2023-02-08T18:30:11.708Z,22.52
2023-02-08T18:32:38.524Z,19.55
2023-02-08T18:35:07.571Z,24.60
2023-02-08T18:37:36.145Z,18.77
2023-02-08T18:40:04.710Z,21.75
2023-02-08T18:42:34.539Z,22.35
2023-02-08T18:45:19.228Z,20.70
2023-02-08T18:48:01.091Z,18.58
2023-02-08T18:50:29.272Z,19.20
2023-02-08T18:52:56.564Z,16.27
2023-02-08T18:55:23.922Z,20.77
2023-02-08T18:58:00.531Z,19.23
2023-02-08T19:00:27.561Z,20.02
2023-02-08T19:02:54.507Z,22.08
2023-02-08T19:05:21.455Z,22.00
2023-02-08T19:07:48.385Z,19.15
2023-02-08T19:10:15.265Z,21.10
2023-02-08T19:12:42.971Z,20.95
2023-02-08T19:15:10.053Z,18.63
2023-02-08T19:17:37.164Z,19.63
2023-02-08T19:20:04.268Z,18.73
2023-02-08T19:22:31.580Z,17.75
2023-02-08T19:25:02.489Z,23.33
2023-02-08T19:27:38.721Z,35.00
2023-02-08T19:30:12.906Z,39.25
2023-02-08T19:32:50.746Z,34.60
2023-02-08T19:35:19.829Z,65.88
2023-02-08T19:37:50.389Z,73.47
2023-02-08T19:40:18.508Z,37.70
2023-02-08T19:42:45.655Z,37.90
2023-02-08T19:45:13.980Z,40.60
2023-02-08T19:47:51.592Z,20.60
2023-02-08T19:50:19.020Z,22.85
2023-02-08T19:52:46.126Z,27.20
2023-02-08T19:55:12.992Z,30.77
2023-02-08T19:57:40.442Z,27.27
2023-02-08T20:00:17.595Z,29.77
2023-02-08T20:02:48.460Z,25.65
2023-02-08T20:05:15.352Z,21.65
2023-02-08T20:07:42.246Z,31.77
2023-02-08T20:10:10.156Z,33.88
2023-02-08T20:12:37.198Z,32.88
2023-02-08T20:15:04.213Z,31.42
2023-02-08T20:17:31.160Z,32.25
2023-02-08T20:19:58.250Z,32.78
2023-02-08T20:22:25.159Z,24.23
2023-02-08T20:24:52.176Z,23.95
2023-02-08T20:27:19.377Z,30.35
2023-02-08T20:29:46.293Z,31.98
2023-02-08T20:32:13.385Z,41.95
2023-02-08T20:34:53.962Z,31.00
2023-02-08T20:37:27.062Z,31.33
2023-02-08T20:39:54.434Z,34.90
2023-02-08T20:42:21.540Z,27.15
2023-02-08T20:44:48.399Z,26.20
2023-02-08T20:47:19.218Z,29.52
2023-02-08T20:49:46.247Z,27.23
2023-02-08T20:52:13.094Z,24.55
2023-02-08T20:54:40.310Z,25.67
2023-02-08T20:57:07.361Z,19.90
2023-02-08T20:59:35.014Z,27.75
2023-02-08T21:02:02.012Z,25.15
2023-02-08T21:04:29.117Z,20.45
2023-02-08T21:06:56.048Z,20.42
2023-02-08T21:09:23.446Z,21.90
2023-02-08T21:11:51.865Z,22.98
2023-02-08T21:14:23.488Z,21.17
2023-02-08T21:16:55.939Z,26.25
2023-02-08T21:19:23.848Z,26.30
2023-02-08T21:21:52.857Z,24.08
2023-02-08T21:24:21.083Z,20.95
2023-02-08T21:26:48.017Z,29.90
2023-02-08T21:29:14.918Z,21.02
2023-02-08T21:31:42.087Z,24.42
2023-02-08T21:34:09.467Z,21.10
2023-02-08T21:36:36.379Z,20.65
2023-02-08T21:39:03.883Z,22.20
2023-02-08T21:41:33.855Z,24.98
2023-02-08T21:44:03.791Z,24.73
2023-02-08T21:46:32.427Z,20.33
2023-02-08T21:49:18.093Z,19.60
2023-02-08T21:52:03.572Z,16.60
2023-02-08T21:54:42.084Z,13.73
2023-02-08T21:57:18.723Z,13.77
2023-02-08T21:59:47.696Z,14.50
2023-02-08T22:02:26.360Z,14.15
2023-02-08T22:05:14.439Z,13.52
2023-02-08T22:07:54.321Z,15.20
2023-02-08T22:10:24.640Z,14.27
2023-02-08T22:12:52.644Z,11.95
2023-02-08T22:15:21.820Z,16.85
2023-02-08T22:17:52.514Z,16.40
2023-02-08T22:20:19.916Z,17.83
2023-02-08T22:22:46.828Z,17.13
2023-02-08T22:25:14.466Z,18.38
2023-02-08T22:27:41.458Z,19.35
2023-02-08T22:30:09.953Z,20.10
2023-02-08T22:32:40.270Z,21.00
2023-02-08T22:35:08.104Z,15.60
2023-02-08T22:37:35.660Z,15.07
2023-02-08T22:40:02.910Z,15.05
2023-02-08T22:42:30.594Z,14.35
2023-02-08T22:44:57.388Z,13.00
2023-02-08T22:47:24.690Z,13.40
2023-02-08T22:49:51.529Z,14.57
2023-02-08T22:52:18.721Z,14.40
2023-02-08T22:54:46.342Z,13.90
2023-02-08T22:57:13.319Z,14.20
2023-02-08T22:59:40.485Z,19.38
2023-02-08T23:02:07.622Z,13.07
2023-02-08T23:04:34.442Z,15.68
2023-02-08T23:07:01.464Z,17.42
2023-02-08T23:09:28.715Z,15.32
2023-02-08T23:11:55.768Z,14.07
2023-02-08T23:14:22.657Z,17.20
2023-02-08T23:16:49.670Z,13.60
2023-02-08T23:19:17.949Z,15.82
2023-02-08T23:21:46.551Z,16.25
2023-02-08T23:24:13.610Z,19.80
2023-02-08T23:26:41.039Z,20.42
2023-02-08T23:29:08.497Z,21.60
2023-02-08T23:31:35.560Z,24.98
2023-02-08T23:34:02.595Z,22.55
2023-02-08T23:36:29.547Z,20.48
2023-02-08T23:38:56.335Z,20.00
2023-02-08T23:41:24.337Z,20.23
2023-02-08T23:43:52.182Z,21.42
2023-02-08T23:46:20.964Z,19.73
2023-02-08T23:48:48.702Z,20.63
2023-02-08T23:51:17.578Z,19.63
2023-02-08T23:54:09.321Z,18.38
2023-02-08T23:56:36.506Z,19.50
2023-02-08T23:59:08.281Z,21.92
